createdAt,value
2019-04-10T00:02:29.288Z,27.85
2019-04-10T00:04:57.679Z,26.10
2019-04-10T00:07:25.996Z,26.85
2019-04-10T00:09:55.127Z,26.00
2019-04-10T00:12:23.661Z,26.23
2019-04-10T00:14:52.549Z,26.77
2019-04-10T00:17:20.979Z,27.55
2019-04-10T00:19:49.313Z,27.05
2019-04-10T00:22:17.996Z,26.27
2019-04-10T00:24:46.486Z,25.65
2019-04-10T00:27:14.761Z,26.07
2019-04-10T00:29:43.003Z,26.60
2019-04-10T00:32:11.945Z,26.62
2019-04-10T00:34:40.334Z,26.70
2019-04-10T00:37:21.292Z,25.17
2019-04-10T00:39:38.991Z,25.92
2019-04-10T00:42:08.418Z,23.60
2019-04-10T00:44:37.513Z,23.15
2019-04-10T00:47:06.583Z,24.55
2019-04-10T00:49:35.029Z,24.65
2019-04-10T00:52:03.874Z,23.92
2019-04-10T00:54:33.062Z,24.30
2019-04-10T00:57:01.429Z,23.77
2019-04-10T00:59:30.380Z,23.20
2019-04-10T01:01:58.713Z,23.38
2019-04-10T01:04:27.025Z,22.02
2019-04-10T01:06:55.345Z,22.42
2019-04-10T01:09:23.729Z,22.05
2019-04-10T01:11:52.146Z,21.07
2019-04-10T01:14:21.277Z,21.42
2019-04-10T01:16:49.770Z,21.00
2019-04-10T01:19:18.020Z,20.90
2019-04-10T01:21:46.482Z,21.60
2019-04-10T01:24:14.835Z,21.52
2019-04-10T01:26:43.316Z,21.82
2019-04-10T01:29:11.683Z,20.97
2019-04-10T01:31:39.926Z,18.80
2019-04-10T01:34:09.361Z,17.57
2019-04-10T01:36:37.848Z,16.62
2019-04-10T01:39:08.750Z,16.90
2019-04-10T01:41:37.204Z,16.85
2019-04-10T01:44:05.705Z,17.30
2019-04-10T01:46:35.831Z,16.32
2019-04-10T01:49:05.070Z,16.65
2019-04-10T01:51:33.688Z,16.42
2019-04-10T01:54:02.690Z,16.57
2019-04-10T01:56:33.716Z,16.97
2019-04-10T01:59:01.368Z,17.02
2019-04-10T02:01:32.457Z,16.82
2019-04-10T02:04:00.881Z,16.80
2019-04-10T02:06:29.453Z,17.02
2019-04-10T02:08:58.354Z,17.35
2019-04-10T02:11:27.977Z,16.77
2019-04-10T02:13:56.832Z,17.10
2019-04-10T02:16:25.616Z,17.57
2019-04-10T02:18:54.147Z,18.00
2019-04-10T02:21:23.438Z,16.55
2019-04-10T02:23:52.407Z,16.85
2019-04-10T02:26:21.317Z,17.42
2019-04-10T02:28:49.726Z,17.80
2019-04-10T02:31:19.153Z,18.23
2019-04-10T02:33:49.542Z,17.37
2019-04-10T02:36:19.392Z,18.70
2019-04-10T02:38:59.645Z,18.55
2019-04-10T02:41:19.240Z,18.00
2019-04-10T02:43:47.659Z,18.35
2019-04-10T02:46:15.919Z,18.07
2019-04-10T02:48:44.649Z,20.02
2019-04-10T02:51:13.700Z,18.75
2019-04-10T02:53:43.699Z,17.62
2019-04-10T02:56:13.527Z,17.90
2019-04-10T02:58:42.695Z,18.82
2019-04-10T03:01:11.370Z,17.73
2019-04-10T03:03:40.338Z,18.40
2019-04-10T03:06:09.233Z,18.55
2019-04-10T03:08:55.236Z,20.05
2019-04-10T03:11:11.586Z,19.42
2019-04-10T03:13:38.141Z,19.70
2019-04-10T03:16:07.538Z,20.82
2019-04-10T03:18:36.846Z,20.00
2019-04-10T03:21:05.162Z,18.27
2019-04-10T03:23:33.631Z,20.40
2019-04-10T03:26:02.091Z,19.48
2019-04-10T03:28:31.984Z,19.30
2019-04-10T03:31:02.271Z,18.77
2019-04-10T03:33:34.867Z,17.52
2019-04-10T03:36:03.103Z,17.90
2019-04-10T03:38:32.174Z,18.60
2019-04-10T03:41:00.507Z,17.98
2019-04-10T03:43:29.874Z,17.42
2019-04-10T03:45:59.120Z,17.77
2019-04-10T03:48:27.607Z,17.50
2019-04-10T03:50:57.123Z,17.75
2019-04-10T03:53:26.436Z,17.55
2019-04-10T03:55:54.747Z,17.92
2019-04-10T03:58:23.191Z,17.57
2019-04-10T04:00:52.195Z,18.35
2019-04-10T04:03:20.668Z,17.92
2019-04-10T04:05:48.977Z,19.62
2019-04-10T04:08:17.254Z,22.42
2019-04-10T04:10:45.528Z,25.05
2019-04-10T04:13:13.772Z,31.12
2019-04-10T04:15:42.188Z,37.70
2019-04-10T04:18:10.937Z,40.67
2019-04-10T04:20:39.295Z,39.92
2019-04-10T04:23:07.554Z,42.33
2019-04-10T04:25:36.605Z,42.67
2019-04-10T04:28:05.006Z,42.43
2019-04-10T04:30:34.075Z,41.33
2019-04-10T04:33:02.538Z,42.40
2019-04-10T04:35:31.278Z,41.42
2019-04-10T04:38:00.453Z,42.05
2019-04-10T04:40:29.951Z,42.95
2019-04-10T04:42:58.434Z,42.70
2019-04-10T04:45:27.614Z,42.58
2019-04-10T04:47:56.207Z,41.95
2019-04-10T04:50:24.719Z,41.60
2019-04-10T04:52:53.664Z,43.98
2019-04-10T04:55:22.027Z,41.77
2019-04-10T04:57:50.284Z,44.13
2019-04-10T05:00:18.618Z,43.10
2019-04-10T05:02:47.066Z,43.35
2019-04-10T05:05:16.415Z,43.10
2019-04-10T05:07:54.741Z,42.05
2019-04-10T05:10:15.385Z,42.90
2019-04-10T05:12:43.823Z,42.50
2019-04-10T05:15:12.976Z,42.23
2019-04-10T05:17:41.600Z,41.55
2019-04-10T05:20:09.923Z,41.63
2019-04-10T05:22:38.189Z,41.45
2019-04-10T05:25:06.927Z,39.45
2019-04-10T05:27:35.308Z,42.23
2019-04-10T05:30:06.205Z,41.10
2019-04-10T05:32:35.366Z,41.98
2019-04-10T05:35:07.407Z,42.80
2019-04-10T05:37:35.904Z,43.13
2019-04-10T05:40:07.575Z,40.00
2019-04-10T05:42:36.019Z,42.13
2019-04-10T05:45:07.051Z,40.52
2019-04-10T05:47:36.533Z,41.23
2019-04-10T05:50:06.146Z,41.75
2019-04-10T05:52:35.338Z,41.23
2019-04-10T05:55:04.284Z,39.78
2019-04-10T05:57:32.902Z,40.58
2019-04-10T06:00:01.323Z,40.00
2019-04-10T06:02:29.963Z,40.23
2019-04-10T06:04:58.396Z,40.88
2019-04-10T06:07:27.356Z,41.65
2019-04-10T06:10:02.013Z,40.80
2019-04-10T06:12:26.484Z,39.63
2019-04-10T06:14:54.774Z,40.05
2019-04-10T06:17:23.048Z,40.45
2019-04-10T06:19:51.343Z,40.92
2019-04-10T06:22:20.746Z,40.75
2019-04-10T06:24:49.147Z,40.33
2019-04-10T06:27:18.420Z,40.48
2019-04-10T06:29:47.661Z,39.90
2019-04-10T06:32:17.063Z,40.78
2019-04-10T06:34:46.062Z,40.50
2019-04-10T06:37:15.662Z,40.60
2019-04-10T06:39:44.998Z,40.23
2019-04-10T06:42:14.292Z,40.52
2019-04-10T06:44:42.603Z,41.25
2019-04-10T06:47:11.947Z,38.60
2019-04-10T06:49:40.676Z,38.30
2019-04-10T06:52:10.056Z,39.55
2019-04-10T06:54:38.571Z,40.38
2019-04-10T06:57:06.888Z,39.40
2019-04-10T06:59:35.183Z,40.58
2019-04-10T07:02:18.517Z,40.50
2019-04-10T07:04:44.241Z,39.75
2019-04-10T07:07:09.378Z,38.90
2019-04-10T07:09:33.832Z,40.20
2019-04-10T07:12:04.223Z,40.45
2019-04-10T07:14:35.098Z,39.92
2019-04-10T07:17:05.534Z,39.95
2019-04-10T07:19:32.422Z,39.60
2019-04-10T07:22:01.880Z,40.05
2019-04-10T07:24:34.527Z,39.92
2019-04-10T07:27:03.363Z,37.95
2019-04-10T07:29:31.139Z,40.45
2019-04-10T07:32:00.468Z,39.45
2019-04-10T07:34:29.950Z,39.55
2019-04-10T07:36:58.408Z,39.30
2019-04-10T07:39:29.512Z,39.27
2019-04-10T07:41:57.738Z,38.58
2019-04-10T07:44:26.241Z,38.85
2019-04-10T07:46:58.309Z,39.83
2019-04-10T07:49:29.652Z,38.25
2019-04-10T07:51:56.545Z,38.73
2019-04-10T07:54:24.926Z,39.05
2019-04-10T07:56:53.166Z,39.53
2019-04-10T07:59:21.650Z,39.55
2019-04-10T08:01:50.072Z,39.23
2019-04-10T08:04:18.361Z,39.95
2019-04-10T08:06:46.879Z,39.25
2019-04-10T08:09:15.216Z,39.53
2019-04-10T08:11:45.137Z,38.92
2019-04-10T08:14:13.388Z,39.30
2019-04-10T08:16:41.632Z,38.95
2019-04-10T08:19:10.407Z,39.63
2019-04-10T08:21:38.820Z,40.08
2019-04-10T08:24:07.398Z,39.25
2019-04-10T08:26:36.667Z,40.45
2019-04-10T08:29:05.727Z,40.52
2019-04-10T08:31:34.238Z,40.45
2019-04-10T08:34:03.282Z,40.45
2019-04-10T08:36:31.886Z,40.38
2019-04-10T08:39:00.398Z,41.53
2019-04-10T08:41:29.628Z,41.18
2019-04-10T08:43:58.879Z,41.02
2019-04-10T08:46:28.151Z,41.70
2019-04-10T08:48:56.493Z,42.05
2019-04-10T08:51:25.659Z,41.80
2019-04-10T08:53:55.625Z,42.55
2019-04-10T08:56:24.764Z,42.43
2019-04-10T08:58:53.109Z,43.48
2019-04-10T09:01:21.456Z,41.88
2019-04-10T09:03:51.509Z,43.45
2019-04-10T09:06:19.943Z,43.35
2019-04-10T09:08:48.921Z,43.35
2019-04-10T09:11:24.650Z,43.87
2019-04-10T09:13:47.226Z,43.55
2019-04-10T09:16:15.488Z,44.35
2019-04-10T09:18:43.740Z,44.05
2019-04-10T09:21:13.220Z,43.48
2019-04-10T09:23:47.293Z,43.23
2019-04-10T09:26:11.903Z,44.18
2019-04-10T09:28:40.265Z,42.75
2019-04-10T09:31:09.343Z,44.88
2019-04-10T09:33:38.951Z,43.78
2019-04-10T09:36:07.363Z,44.58
2019-04-10T09:38:36.840Z,44.53
2019-04-10T09:41:05.694Z,45.50
2019-04-10T09:43:34.086Z,43.08
2019-04-10T09:46:02.410Z,45.03
2019-04-10T09:48:31.611Z,43.95
2019-04-10T09:51:00.325Z,44.50
2019-04-10T09:53:28.797Z,44.85
2019-04-10T09:55:57.084Z,44.65
2019-04-10T09:58:26.190Z,43.52
2019-04-10T10:00:55.007Z,44.38
2019-04-10T10:03:24.125Z,44.75
2019-04-10T10:05:53.091Z,45.63
2019-04-10T10:08:22.544Z,45.20
2019-04-10T10:10:50.897Z,46.48
2019-04-10T10:13:19.306Z,46.58
2019-04-10T10:15:47.542Z,45.33
2019-04-10T10:18:15.813Z,44.50
2019-04-10T10:20:44.083Z,45.95
2019-04-10T10:23:12.314Z,45.70
2019-04-10T10:25:41.514Z,46.48
2019-04-10T10:28:11.713Z,46.48
2019-04-10T10:30:39.837Z,45.80
2019-04-10T10:33:08.127Z,46.75
2019-04-10T10:35:36.372Z,47.58
2019-04-10T10:38:05.402Z,46.28
2019-04-10T10:40:34.026Z,46.13
2019-04-10T10:43:02.535Z,46.77
2019-04-10T10:45:31.143Z,47.75
2019-04-10T10:47:59.512Z,48.00
2019-04-10T10:50:28.919Z,45.03
2019-04-10T10:52:57.609Z,46.33
2019-04-10T10:55:25.955Z,47.60
2019-04-10T10:57:55.337Z,46.55
2019-04-10T11:00:23.770Z,47.95
2019-04-10T11:02:52.034Z,48.28
2019-04-10T11:05:21.127Z,48.17
2019-04-10T11:07:49.456Z,48.25
2019-04-10T11:10:23.669Z,48.78
2019-04-10T11:12:48.372Z,48.38
2019-04-10T11:15:16.798Z,46.20
2019-04-10T11:17:46.062Z,47.67
2019-04-10T11:20:15.264Z,48.20
2019-04-10T11:22:43.613Z,47.43
2019-04-10T11:25:12.261Z,48.33
2019-04-10T11:27:42.093Z,46.13
2019-04-10T11:30:12.521Z,47.83
2019-04-10T11:32:42.255Z,46.83
2019-04-10T11:35:11.181Z,47.98
2019-04-10T11:37:44.588Z,47.23
2019-04-10T11:40:09.522Z,48.48
2019-04-10T11:42:39.782Z,48.98
2019-04-10T11:45:08.246Z,48.38
2019-04-10T11:47:38.859Z,47.38
2019-04-10T11:50:13.065Z,47.48
2019-04-10T11:52:42.519Z,47.17
2019-04-10T11:55:13.912Z,47.88
2019-04-10T11:57:37.876Z,46.40
2019-04-10T12:00:12.035Z,44.38
2019-04-10T12:02:39.435Z,46.13
2019-04-10T12:05:12.016Z,46.00
2019-04-10T12:08:00.512Z,44.25
2019-04-10T12:12:37.821Z,46.68
2019-04-10T12:15:08.029Z,46.00
2019-04-10T12:17:36.386Z,45.48
2019-04-10T12:20:06.937Z,46.85
2019-04-10T12:22:35.874Z,45.30
2019-04-10T12:25:05.639Z,47.05
2019-04-10T12:27:35.232Z,45.63
2019-04-10T12:30:06.852Z,43.75
2019-04-10T12:32:36.974Z,46.13
2019-04-10T12:35:06.852Z,44.55
2019-04-10T12:37:37.133Z,45.33
2019-04-10T12:40:07.344Z,43.92
2019-04-10T12:42:36.549Z,44.27
2019-04-10T12:45:06.226Z,45.63
2019-04-10T12:47:34.762Z,45.48
2019-04-10T12:50:05.711Z,45.43
2019-04-10T12:52:34.564Z,44.05
2019-04-10T12:55:03.935Z,45.67
2019-04-10T12:57:32.282Z,45.23
2019-04-10T13:00:04.033Z,43.13
2019-04-10T13:02:30.548Z,47.70
2019-04-10T13:04:58.842Z,46.53
2019-04-10T13:07:27.613Z,46.35
2019-04-10T13:09:55.996Z,45.23
2019-04-10T13:12:25.055Z,46.10
2019-04-10T13:14:53.437Z,45.85
2019-04-10T13:17:22.693Z,45.90
2019-04-10T13:19:51.410Z,47.05
2019-04-10T13:22:20.131Z,46.70
2019-04-10T13:24:48.438Z,45.80
2019-04-10T13:27:16.806Z,45.73
2019-04-10T13:29:45.051Z,46.60
2019-04-10T13:32:13.901Z,43.35
2019-04-10T13:34:42.341Z,44.33
2019-04-10T13:37:10.609Z,46.75
2019-04-10T13:39:39.245Z,46.15
2019-04-10T13:42:09.192Z,47.05
2019-04-10T13:44:38.392Z,45.78
2019-04-10T13:47:07.106Z,46.30
2019-04-10T13:49:35.743Z,47.08
2019-04-10T13:52:04.121Z,48.02
2019-04-10T13:54:32.585Z,46.80
2019-04-10T13:57:01.503Z,46.60
2019-04-10T13:59:31.062Z,47.35
2019-04-10T14:02:00.554Z,49.18
2019-04-10T14:04:31.243Z,48.15
2019-04-10T14:06:59.783Z,46.60
2019-04-10T14:09:35.878Z,52.40
2019-04-10T14:11:58.133Z,50.83
2019-04-10T14:14:26.726Z,50.50
2019-04-10T14:16:55.170Z,49.10
2019-04-10T14:19:23.787Z,72.67
2019-04-10T14:21:55.741Z,57.15
2019-04-10T14:24:24.950Z,49.75
2019-04-10T14:26:56.631Z,49.58
2019-04-10T14:29:25.289Z,49.45
2019-04-10T14:31:55.221Z,48.78
2019-04-10T14:34:23.469Z,47.80
2019-04-10T14:36:52.634Z,49.45
2019-04-10T14:39:21.778Z,48.38
2019-04-10T14:44:42.873Z,48.45
2019-04-10T14:47:13.336Z,53.70
2019-04-10T14:49:41.091Z,51.05
2019-04-10T14:52:10.655Z,47.48
2019-04-10T14:54:39.744Z,47.93
2019-04-10T14:57:08.095Z,48.35
2019-04-10T14:59:40.010Z,47.98
2019-04-10T15:02:10.562Z,48.13
2019-04-10T15:04:39.533Z,47.27
2019-04-10T15:07:08.135Z,47.55
2019-04-10T15:09:38.138Z,49.48
2019-04-10T15:12:07.274Z,55.25
2019-04-10T15:14:37.480Z,52.70
2019-04-10T15:17:06.608Z,48.92
2019-04-10T15:19:36.425Z,47.78
2019-04-10T15:22:04.949Z,46.80
2019-04-10T15:24:33.349Z,46.68
2019-04-10T15:27:02.742Z,50.28
2019-04-10T15:29:33.493Z,49.05
2019-04-10T15:32:06.338Z,46.95
2019-04-10T15:34:39.600Z,47.17
2019-04-10T15:37:08.861Z,47.93
2019-04-10T15:39:46.428Z,47.85
2019-04-10T15:45:08.434Z,47.53
2019-04-10T15:47:37.448Z,48.63
2019-04-10T15:50:07.155Z,46.90
2019-04-10T15:52:37.475Z,51.02
2019-04-10T15:55:05.980Z,50.10
2019-04-10T15:57:47.039Z,50.88
2019-04-10T16:00:08.630Z,50.98
2019-04-10T16:02:37.029Z,49.70
2019-04-10T16:05:07.110Z,49.55
2019-04-10T16:07:36.280Z,51.35
2019-04-10T16:10:13.494Z,49.98
2019-04-10T16:12:41.788Z,52.65
2019-04-10T16:18:01.797Z,51.35
2019-04-10T16:20:31.758Z,49.88
2019-04-10T16:23:10.728Z,50.60
2019-04-10T16:25:40.711Z,50.98
2019-04-10T16:28:11.040Z,51.05
2019-04-10T16:30:39.052Z,51.77
2019-04-10T16:33:07.322Z,51.60
2019-04-10T16:35:36.910Z,51.40
2019-04-10T16:38:06.911Z,52.27
2019-04-10T16:40:36.154Z,52.80
2019-04-10T16:43:06.103Z,52.35
2019-04-10T16:45:34.876Z,53.10
2019-04-10T16:48:03.463Z,51.83
2019-04-10T16:50:34.173Z,54.08
2019-04-10T16:53:03.357Z,52.23
2019-04-10T16:55:32.572Z,54.60
2019-04-10T16:58:01.251Z,54.35
2019-04-10T17:00:29.739Z,56.15
2019-04-10T17:02:57.990Z,53.50
2019-04-10T17:05:26.388Z,55.33
2019-04-10T17:07:55.279Z,55.05
2019-04-10T17:10:27.361Z,53.83
2019-04-10T17:12:55.603Z,55.88
2019-04-10T17:15:24.081Z,55.17
2019-04-10T17:17:55.015Z,56.05
2019-04-10T17:20:24.485Z,56.88
2019-04-10T17:22:54.256Z,59.10
2019-04-10T17:25:32.102Z,58.02
2019-04-10T17:28:01.655Z,57.27
2019-04-10T17:30:30.192Z,60.83
2019-04-10T17:32:58.452Z,62.45
2019-04-10T17:35:27.561Z,59.70
2019-04-10T17:37:56.203Z,58.05
2019-04-10T17:40:33.099Z,58.58
2019-04-10T17:42:54.909Z,59.18
2019-04-10T17:45:25.462Z,57.40
2019-04-10T17:47:56.460Z,58.85
2019-04-10T17:50:25.276Z,60.78
2019-04-10T17:52:53.725Z,60.08
2019-04-10T17:55:23.095Z,59.15
2019-04-10T17:57:54.385Z,59.80
2019-04-10T18:00:43.180Z,61.08
2019-04-10T18:03:13.027Z,62.20
2019-04-10T18:05:42.583Z,59.88
2019-04-10T18:08:11.107Z,59.80
2019-04-10T18:10:46.508Z,66.90
2019-04-10T18:13:09.432Z,65.35
2019-04-10T18:15:37.935Z,63.87
2019-04-10T18:18:07.325Z,60.55
2019-04-10T18:20:36.039Z,60.80
2019-04-10T18:23:04.376Z,60.88
2019-04-10T18:25:32.675Z,64.72
2019-04-10T18:28:01.199Z,65.20
2019-04-10T18:30:31.675Z,64.27
2019-04-10T18:33:00.229Z,67.78
2019-04-10T18:35:28.916Z,70.15
2019-04-10T18:37:58.641Z,66.62
2019-04-10T18:40:27.494Z,71.07
2019-04-10T18:42:58.104Z,64.92
2019-04-10T18:45:27.924Z,61.05
2019-04-10T18:47:56.481Z,58.25
2019-04-10T18:50:24.974Z,58.02
2019-04-10T18:52:53.948Z,55.92
2019-04-10T18:55:22.572Z,57.33
2019-04-10T18:57:51.428Z,56.85
2019-04-10T19:00:34.420Z,57.05
2019-04-10T19:03:07.558Z,57.03
2019-04-10T19:05:38.379Z,57.55
2019-04-10T19:08:07.057Z,58.52
2019-04-10T19:10:36.519Z,58.25
2019-04-10T19:13:05.550Z,59.48
2019-04-10T19:15:35.001Z,57.88
2019-04-10T19:18:03.694Z,58.28
2019-04-10T19:20:33.073Z,63.48
2019-04-10T19:23:01.495Z,74.30
2019-04-10T19:25:30.253Z,63.48
2019-04-10T19:27:58.765Z,58.58
2019-04-10T19:30:47.669Z,60.35
2019-04-10T19:33:16.222Z,60.50
2019-04-10T19:35:45.522Z,57.13
2019-04-10T19:38:13.883Z,56.60
2019-04-10T19:40:42.146Z,56.30
2019-04-10T19:43:10.508Z,57.58
2019-04-10T19:45:39.785Z,58.13
2019-04-10T19:48:08.997Z,56.35
2019-04-10T19:50:37.429Z,57.33
2019-04-10T19:53:05.736Z,56.23
2019-04-10T19:55:34.014Z,57.83
2019-04-10T19:58:02.280Z,58.70
2019-04-10T20:00:32.696Z,58.68
2019-04-10T20:03:01.504Z,57.13
2019-04-10T20:05:30.026Z,57.38
2019-04-10T20:07:59.530Z,58.55
2019-04-10T20:10:28.020Z,58.40
2019-04-10T20:12:57.212Z,56.05
2019-04-10T20:15:26.680Z,57.60
2019-04-10T20:17:55.186Z,58.48
2019-04-10T20:20:23.580Z,59.03
2019-04-10T20:22:51.878Z,57.03
2019-04-10T20:25:20.144Z,58.78
2019-04-10T20:27:48.469Z,58.58
2019-04-10T20:30:17.429Z,57.62
2019-04-10T20:32:46.082Z,61.05
2019-04-10T20:35:14.464Z,59.65
2019-04-10T20:37:42.992Z,59.67
2019-04-10T20:40:11.919Z,62.17
2019-04-10T20:42:40.463Z,59.35
2019-04-10T20:45:09.339Z,61.92
2019-04-10T20:47:37.771Z,60.65
2019-04-10T20:50:06.017Z,60.08
2019-04-10T20:52:34.674Z,60.52
2019-04-10T20:55:05.683Z,62.27
2019-04-10T20:57:35.262Z,61.60
2019-04-10T21:00:07.269Z,60.83
2019-04-10T21:02:36.215Z,60.90
2019-04-10T21:05:09.568Z,60.28
2019-04-10T21:07:37.375Z,66.05
2019-04-10T21:10:06.708Z,66.70
2019-04-10T21:12:35.012Z,62.00
2019-04-10T21:15:03.935Z,62.93
2019-04-10T21:17:42.330Z,60.20
2019-04-10T21:20:13.138Z,61.68
2019-04-10T21:22:40.776Z,64.07
2019-04-10T21:25:10.197Z,61.13
2019-04-10T21:27:39.662Z,62.53
2019-04-10T21:30:15.875Z,61.35
2019-04-10T21:32:49.547Z,64.32
2019-04-10T21:35:27.053Z,64.15
2019-04-10T21:37:55.526Z,60.92
2019-04-10T21:40:23.789Z,62.23
2019-04-10T21:42:52.069Z,62.10
2019-04-10T21:45:20.344Z,61.33
2019-04-10T21:47:48.660Z,60.83
2019-04-10T21:50:17.135Z,60.73
2019-04-10T21:52:47.592Z,62.53
2019-04-10T21:55:16.988Z,64.82
2019-04-10T21:57:45.441Z,62.85
2019-04-10T22:00:14.867Z,62.33
2019-04-10T22:02:45.009Z,63.13
2019-04-10T22:05:14.254Z,60.38
2019-04-10T22:07:50.319Z,61.95
2019-04-10T22:10:23.897Z,62.90
2019-04-10T22:12:52.739Z,60.52
2019-04-10T22:15:37.776Z,60.95
2019-04-10T22:18:07.172Z,60.28
2019-04-10T22:20:36.017Z,67.62
2019-04-10T22:23:04.438Z,83.45
2019-04-10T22:25:32.715Z,66.95
2019-04-10T22:28:01.049Z,62.95
2019-04-10T22:30:29.567Z,61.77
2019-04-10T22:32:57.939Z,60.48
2019-04-10T22:35:26.205Z,62.95
2019-04-10T22:37:54.508Z,59.25
2019-04-10T22:40:23.650Z,60.78
2019-04-10T22:42:53.171Z,59.88
2019-04-10T22:45:27.395Z,60.52
2019-04-10T22:47:56.353Z,61.25
2019-04-10T22:50:24.630Z,59.33
2019-04-10T22:52:52.963Z,60.38
2019-04-10T22:55:21.818Z,62.03
2019-04-10T22:57:50.567Z,62.88
2019-04-10T23:00:20.621Z,61.92
2019-04-10T23:02:49.191Z,61.02
2019-04-10T23:05:18.371Z,61.90
2019-04-10T23:07:47.226Z,61.83
2019-04-10T23:10:15.721Z,61.77
2019-04-10T23:12:52.277Z,61.18
2019-04-10T23:15:13.979Z,64.27
2019-04-10T23:17:43.185Z,63.25
2019-04-10T23:20:11.572Z,62.35
2019-04-10T23:22:41.059Z,61.02
2019-04-10T23:25:10.010Z,62.10
2019-04-10T23:27:38.448Z,60.70
2019-04-10T23:30:08.671Z,60.70
2019-04-10T23:32:37.491Z,59.15
2019-04-10T23:35:05.876Z,62.15
2019-04-10T23:37:35.033Z,58.52
2019-04-10T23:40:04.938Z,60.23
2019-04-10T23:42:33.307Z,60.05
2019-04-10T23:45:01.760Z,57.67
2019-04-10T23:47:30.184Z,59.13
2019-04-10T23:49:59.618Z,58.78
2019-04-10T23:52:28.077Z,57.45
2019-04-10T23:54:57.542Z,58.05
2019-04-10T23:57:25.892Z,58.23
2019-04-10T23:59:55.040Z,58.35
